Time;durP1;ratioP1;P1;durP2;ratioP2;P2;SDS_P1;SDS_P2;PMS_P1;PMS_P2;Temp;Humidity;BMP_temperature;BMP_pressure;BME280_temperature;BME280_humidity;BME280_pressure;Samples;Min_cycle;Max_cycle;Signal;HPM_P1;HPM_P2
2023/08/21 00:01:30;;;;;;;15.70;14.10;;;19.10;99.90;;;;;;5034164;28;20437;-77
2023/08/21 00:03:56;;;;;;;13.27;12.07;;;19.10;99.90;;;;;;5033777;28;20032;-79
2023/08/21 00:06:21;;;;;;;12.35;11.15;;;19.00;99.90;;;;;;5032825;28;20017;-79
2023/08/21 00:08:47;;;;;;;10.20;9.32;;;19.00;99.90;;;;;;5032236;28;20027;-78
2023/08/21 00:11:13;;;;;;;11.75;10.55;;;18.90;99.90;;;;;;5033832;28;20024;-78
2023/08/21 00:13:38;;;;;;;14.98;13.55;;;18.80;99.90;;;;;;5030129;28;20530;-77
2023/08/21 00:16:04;;;;;;;14.93;13.50;;;18.80;99.90;;;;;;5027246;28;20021;-77
2023/08/21 00:18:29;;;;;;;12.45;11.23;;;18.70;99.90;;;;;;5032329;28;20021;-76
2023/08/21 00:20:55;;;;;;;14.57;12.00;;;18.70;99.90;;;;;;5033670;28;20502;-77
2023/08/21 00:23:21;;;;;;;14.02;12.73;;;18.70;99.90;;;;;;5033327;28;20030;-77
2023/08/21 00:25:47;;;;;;;14.32;12.93;;;18.70;99.90;;;;;;5033248;28;20364;-77
2023/08/21 00:28:13;;;;;;;15.50;13.98;;;18.60;99.90;;;;;;5033461;28;20024;-76
2023/08/21 00:30:39;;;;;;;15.52;13.07;;;18.60;99.90;;;;;;5033297;28;20104;-78
2023/08/21 00:33:05;;;;;;;15.48;13.90;;;18.60;99.90;;;;;;5031985;28;20171;-78
2023/08/21 00:35:31;;;;;;;15.77;13.80;;;18.60;99.90;;;;;;5030916;28;20032;-78
2023/08/21 00:37:57;;;;;;;14.15;12.75;;;18.60;99.90;;;;;;5032861;28;20487;-78
2023/08/21 00:40:22;;;;;;;14.40;12.93;;;18.60;99.90;;;;;;5032981;28;20025;-76
2023/08/21 00:42:48;;;;;;;16.67;15.07;;;18.60;99.90;;;;;;5032005;28;20100;-77
2023/08/21 00:45:14;;;;;;;19.45;14.90;;;18.60;99.90;;;;;;5032193;28;20032;-76
2023/08/21 00:47:39;;;;;;;18.23;14.50;;;18.60;99.90;;;;;;5031509;28;20022;-78
2023/08/21 00:50:07;;;;;;;16.40;14.57;;;18.60;99.90;;;;;;5031706;28;20029;-78
2023/08/21 00:52:34;;;;;;;17.58;14.70;;;18.60;99.90;;;;;;5023784;28;20021;-77
2023/08/21 00:55:00;;;;;;;16.77;14.98;;;18.60;99.90;;;;;;5032854;28;20096;-77
2023/08/21 00:57:26;;;;;;;16.92;14.32;;;18.60;99.90;;;;;;5031755;28;20037;-78
2023/08/21 00:59:52;;;;;;;17.55;15.43;;;18.50;99.90;;;;;;5031094;28;20013;-78
2023/08/21 01:02:19;;;;;;;18.50;15.73;;;18.60;99.90;;;;;;5032723;28;20037;-78
2023/08/21 01:04:45;;;;;;;17.27;15.48;;;18.50;99.90;;;;;;5031692;28;20092;-77
2023/08/21 01:07:10;;;;;;;12.90;11.23;;;18.40;99.90;;;;;;5031860;28;20116;-77
2023/08/21 01:09:43;;;;;;;14.07;12.57;;;18.40;99.90;;;;;;5032758;28;20165;-78
2023/08/21 01:13:01;;;;;;;17.15;15.30;;;18.30;99.90;;;;;;5031588;28;20032;-76
2023/08/21 01:15:29;;;;;;;19.73;17.40;;;18.30;99.90;;;;;;5025889;28;20052;-76
2023/08/21 01:17:55;;;;;;;20.98;17.58;;;18.30;99.90;;;;;;5032218;28;20053;-76
2023/08/21 01:20:21;;;;;;;17.50;15.60;;;18.30;99.90;;;;;;5032907;28;20105;-76
2023/08/21 01:22:47;;;;;;;14.77;13.23;;;18.30;99.90;;;;;;5032323;28;20446;-78
2023/08/21 01:25:12;;;;;;;16.30;14.13;;;18.30;99.90;;;;;;5032709;28;20017;-76
2023/08/21 01:27:45;;;;;;;16.35;14.68;;;18.20;99.90;;;;;;5032479;28;20044;-76
2023/08/21 01:30:11;;;;;;;15.63;13.88;;;18.20;99.90;;;;;;5032704;28;20526;-78
2023/08/21 01:32:56;;;;;;;18.08;16.10;;;18.20;99.90;;;;;;5031160;28;20383;-76
2023/08/21 01:35:23;;;;;;;15.98;13.20;;;18.20;99.90;;;;;;5032463;28;20025;-78
2023/08/21 01:37:52;;;;;;;11.70;10.48;;;18.10;99.90;;;;;;5031252;28;20061;-78
2023/08/21 01:40:24;;;;;;;13.10;11.82;;;18.10;99.90;;;;;;5032282;28;20061;-78
2023/08/21 01:42:52;;;;;;;15.20;13.60;;;18.00;99.90;;;;;;5031262;28;20059;-77
2023/08/21 01:45:17;;;;;;;14.13;12.65;;;18.00;99.90;;;;;;5032217;28;20434;-76
2023/08/21 01:47:43;;;;;;;12.55;11.07;;;18.00;99.90;;;;;;5034952;28;20101;-77
2023/08/21 01:50:09;;;;;;;12.90;11.52;;;17.90;99.90;;;;;;5036336;28;20053;-78
2023/08/21 01:52:34;;;;;;;14.35;12.85;;;18.00;99.90;;;;;;5035428;28;20100;-78
2023/08/21 01:55:00;;;;;;;19.73;13.73;;;17.90;99.90;;;;;;5036057;28;20017;-78
2023/08/21 01:57:26;;;;;;;13.52;12.13;;;17.90;99.90;;;;;;5035187;28;20079;-76
2023/08/21 01:59:51;;;;;;;15.70;13.50;;;18.00;99.90;;;;;;5036149;28;20048;-76
2023/08/21 02:02:17;;;;;;;17.60;15.13;;;18.00;99.90;;;;;;5035080;28;20036;-76
2023/08/21 02:04:42;;;;;;;18.75;16.40;;;17.90;99.90;;;;;;5034898;28;20022;-76
2023/08/21 02:07:08;;;;;;;19.50;17.15;;;17.90;99.90;;;;;;5035070;28;20021;-77
2023/08/21 02:09:34;;;;;;;22.73;18.70;;;17.90;99.90;;;;;;5051016;28;20028;-76
2023/08/21 02:11:59;;;;;;;20.30;18.17;;;17.90;99.90;;;;;;5034908;28;20021;-78
2023/08/21 02:14:25;;;;;;;20.10;17.52;;;17.90;99.90;;;;;;5034802;28;20096;-76
2023/08/21 02:16:51;;;;;;;22.60;17.27;;;17.90;99.90;;;;;;5035899;28;20464;-78
2023/08/21 02:19:16;;;;;;;20.85;17.17;;;17.90;99.90;;;;;;5034595;28;20072;-78
2023/08/21 02:21:42;;;;;;;21.60;19.25;;;17.90;99.90;;;;;;5036079;28;20020;-78
2023/08/21 02:24:08;;;;;;;24.27;16.92;;;17.90;99.90;;;;;;5034119;28;20030;-78
2023/08/21 02:26:33;;;;;;;18.40;15.85;;;17.90;99.90;;;;;;5034738;28;20071;-76
2023/08/21 02:28:59;;;;;;;18.42;16.00;;;17.90;99.90;;;;;;5035481;28;20057;-76
2023/08/21 02:31:24;;;;;;;19.17;16.48;;;17.90;99.90;;;;;;5034379;28;20539;-77
2023/08/21 02:33:50;;;;;;;17.08;15.07;;;17.80;99.90;;;;;;5034211;28;20026;-76
2023/08/21 02:36:16;;;;;;;19.52;17.15;;;17.80;99.90;;;;;;5034497;28;20032;-77
2023/08/21 02:38:42;;;;;;;21.60;19.35;;;17.80;99.90;;;;;;5035523;28;20025;-78
2023/08/21 02:41:07;;;;;;;20.65;17.30;;;17.80;99.90;;;;;;5035732;28;20032;-76
2023/08/21 02:43:34;;;;;;;20.85;17.02;;;17.80;99.90;;;;;;5035444;28;20104;-78
2023/08/21 02:46:00;;;;;;;19.13;17.02;;;17.70;99.90;;;;;;5034260;28;20124;-78
2023/08/21 02:48:25;;;;;;;15.80;14.20;;;17.70;99.90;;;;;;5035323;28;20105;-77
2023/08/21 02:50:51;;;;;;;18.23;13.27;;;17.60;99.90;;;;;;5035315;28;20026;-78
2023/08/21 02:53:16;;;;;;;14.48;12.98;;;17.60;99.90;;;;;;5035153;28;20025;-77
2023/08/21 02:55:42;;;;;;;14.00;11.40;;;17.60;99.90;;;;;;5034233;28;20021;-76
2023/08/21 02:58:07;;;;;;;12.65;11.43;;;17.50;99.90;;;;;;5032578;28;20120;-76
2023/08/21 03:00:33;;;;;;;13.52;12.13;;;17.50;99.90;;;;;;5035127;28;20018;-78
2023/08/21 03:02:59;;;;;;;14.00;12.52;;;17.50;99.90;;;;;;5032541;28;20022;-78
2023/08/21 03:05:25;;;;;;;10.90;9.82;;;17.40;99.90;;;;;;5025514;28;20029;-76
2023/08/21 03:07:50;;;;;;;8.43;7.68;;;17.30;99.90;;;;;;5034765;28;20036;-78
2023/08/21 03:10:16;;;;;;;8.65;7.85;;;17.20;99.90;;;;;;5033851;28;20089;-77
2023/08/21 03:12:41;;;;;;;10.07;9.15;;;17.10;99.90;;;;;;5034952;28;20025;-77
2023/08/21 03:15:07;;;;;;;9.68;8.25;;;17.20;99.90;;;;;;5034976;28;20028;-77
2023/08/21 03:17:33;;;;;;;10.30;9.20;;;17.20;99.90;;;;;;5034478;28;20057;-78
2023/08/21 03:19:58;;;;;;;11.40;9.95;;;17.10;99.90;;;;;;5034903;28;20095;-77
2023/08/21 03:22:24;;;;;;;13.23;11.95;;;17.20;99.90;;;;;;5034181;28;20075;-78
2023/08/21 03:24:50;;;;;;;17.50;12.55;;;17.20;99.90;;;;;;5033565;28;20029;-78
2023/08/21 03:27:17;;;;;;;14.75;13.18;;;17.20;99.90;;;;;;5033243;28;20017;-78
2023/08/21 03:29:48;;;;;;;16.58;14.88;;;17.20;99.90;;;;;;5034915;28;20360;-77
2023/08/21 03:32:15;;;;;;;16.65;14.68;;;17.10;99.90;;;;;;5029911;28;20112;-77
2023/08/21 03:34:40;;;;;;;16.13;14.40;;;17.10;99.90;;;;;;5033485;28;20029;-77
2023/08/21 03:37:06;;;;;;;14.85;13.02;;;17.10;99.90;;;;;;5034257;28;20044;-77
2023/08/21 03:39:32;;;;;;;17.60;15.05;;;17.20;99.90;;;;;;5034747;28;20022;-77
2023/08/21 03:41:58;;;;;;;14.68;13.18;;;17.20;99.90;;;;;;5034384;28;20021;-78
2023/08/21 03:44:24;;;;;;;15.55;12.60;;;17.30;99.90;;;;;;5034199;28;20026;-78
2023/08/21 03:46:49;;;;;;;14.73;12.60;;;17.30;99.90;;;;;;5034300;28;20546;-77
2023/08/21 03:49:15;;;;;;;14.43;12.93;;;17.30;99.90;;;;;;5033078;28;20120;-78
2023/08/21 03:51:40;;;;;;;15.23;12.20;;;17.30;99.90;;;;;;5033018;28;20109;-77
2023/08/21 03:54:06;;;;;;;12.63;11.45;;;17.10;99.90;;;;;;5033062;28;20486;-77
2023/08/21 03:56:31;;;;;;;12.45;11.25;;;17.00;99.90;;;;;;5032793;28;20022;-77
2023/08/21 03:58:57;;;;;;;12.20;11.00;;;17.00;99.90;;;;;;5032940;28;20022;-78
2023/08/21 04:01:23;;;;;;;12.52;11.38;;;17.00;99.90;;;;;;5033913;28;20471;-78
2023/08/21 04:03:48;;;;;;;14.75;13.23;;;17.00;99.90;;;;;;5032813;28;20164;-78
2023/08/21 04:06:14;;;;;;;14.65;13.25;;;17.00;99.90;;;;;;5033584;28;20028;-77
2023/08/21 04:08:40;;;;;;;13.23;11.98;;;17.10;99.90;;;;;;5032856;28;20025;-78
2023/08/21 04:11:06;;;;;;;14.80;13.20;;;17.10;99.90;;;;;;5032183;28;20545;-77
2023/08/21 04:13:32;;;;;;;17.85;15.00;;;17.20;99.90;;;;;;5032696;28;20024;-76
2023/08/21 04:15:57;;;;;;;20.92;17.05;;;17.30;99.90;;;;;;5032185;28;20025;-78
2023/08/21 04:18:23;;;;;;;16.83;15.05;;;17.40;99.90;;;;;;5033803;28;20414;-78
2023/08/21 04:20:49;;;;;;;20.25;16.00;;;17.40;99.90;;;;;;5032403;28;20051;-78
2023/08/21 04:23:15;;;;;;;17.92;15.65;;;17.50;99.90;;;;;;5032298;28;20483;-78
2023/08/21 04:25:41;;;;;;;20.88;16.45;;;17.60;99.90;;;;;;5033401;28;20030;-79
2023/08/21 04:28:07;;;;;;;17.88;16.02;;;17.70;99.90;;;;;;5032392;28;20391;-79
2023/08/21 04:30:33;;;;;;;17.70;14.93;;;17.90;99.90;;;;;;5033100;28;20029;-78
2023/08/21 04:32:59;;;;;;;15.88;14.27;;;17.90;99.90;;;;;;5032125;28;20017;-79
2023/08/21 04:35:25;;;;;;;16.27;14.50;;;18.00;99.90;;;;;;5033102;28;20026;-80
2023/08/21 04:37:50;;;;;;;18.73;14.73;;;18.00;99.90;;;;;;5033325;28;20045;-78
2023/08/21 04:40:17;;;;;;;15.52;14.00;;;18.10;99.90;;;;;;5031889;28;20025;-80
2023/08/21 04:42:43;;;;;;;15.27;13.82;;;18.10;99.90;;;;;;5031257;28;20429;-80
2023/08/21 04:45:09;;;;;;;20.58;14.50;;;18.10;99.90;;;;;;5033123;28;20056;-79
2023/08/21 04:47:35;;;;;;;17.17;15.45;;;18.10;99.90;;;;;;5031523;28;20040;-78
2023/08/21 04:50:00;;;;;;;20.10;15.38;;;18.20;99.90;;;;;;5031685;28;20029;-78
2023/08/21 04:52:26;;;;;;;17.33;15.48;;;18.20;99.90;;;;;;5033075;28;20017;-80
2023/08/21 04:54:53;;;;;;;19.05;17.02;;;18.30;99.90;;;;;;5031926;28;20975;-80
2023/08/21 04:57:20;;;;;;;20.33;16.58;;;18.40;99.90;;;;;;5033063;28;20037;-80
2023/08/21 04:59:46;;;;;;;25.70;18.05;;;18.50;99.90;;;;;;5030653;28;20108;-78
2023/08/21 05:02:12;;;;;;;22.27;17.77;;;18.60;99.90;;;;;;5027527;28;20107;-78
2023/08/21 05:04:38;;;;;;;22.00;19.27;;;18.80;99.90;;;;;;5032794;28;20022;-80
2023/08/21 05:07:04;;;;;;;27.50;20.25;;;18.80;99.90;;;;;;5032920;28;20071;-79
2023/08/21 05:09:30;;;;;;;26.42;19.63;;;19.00;99.90;;;;;;5031233;28;20044;-80
2023/08/21 05:11:56;;;;;;;27.10;19.88;;;19.10;99.90;;;;;;5031010;28;20029;-77
2023/08/21 05:14:22;;;;;;;28.27;20.70;;;19.30;99.90;;;;;;5028654;28;20036;-77
2023/08/21 05:16:51;;;;;;;29.17;25.08;;;19.40;99.90;;;;;;5023319;28;20041;-77
2023/08/21 05:19:17;;;;;;;28.77;22.10;;;19.50;99.90;;;;;;5028955;28;20026;-76
2023/08/21 05:21:44;;;;;;;33.25;26.02;;;19.70;99.90;;;;;;5030967;28;20052;-76
2023/08/21 05:24:10;;;;;;;32.03;25.20;;;19.80;99.90;;;;;;5030968;28;20017;-76
2023/08/21 05:26:36;;;;;;;30.98;25.45;;;20.00;99.90;;;;;;5031319;28;20025;-77
2023/08/21 05:29:02;;;;;;;33.38;25.77;;;20.20;99.90;;;;;;5030858;28;20541;-76
2023/08/21 05:31:28;;;;;;;30.45;26.67;;;20.30;99.90;;;;;;5032719;28;20053;-76
2023/08/21 05:33:53;;;;;;;29.58;24.33;;;20.50;99.90;;;;;;5027712;28;20441;-77
2023/08/21 05:36:19;;;;;;;30.95;26.20;;;20.60;99.90;;;;;;5031617;28;20494;-77
2023/08/21 05:38:45;;;;;;;33.60;26.38;;;20.70;99.90;;;;;;5031831;28;20040;-77
2023/08/21 05:41:11;;;;;;;34.78;28.50;;;20.90;99.90;;;;;;5029001;28;20031;-78
2023/08/21 05:43:37;;;;;;;36.97;27.85;;;21.10;99.90;;;;;;5030278;28;20561;-78
2023/08/21 05:46:05;;;;;;;31.77;24.88;;;21.30;99.90;;;;;;5032087;28;20514;-78
2023/08/21 05:48:31;;;;;;;35.47;26.90;;;21.60;99.90;;;;;;5031986;28;20033;-77
2023/08/21 05:50:57;;;;;;;29.48;25.85;;;21.70;99.90;;;;;;5031343;28;20474;-77
2023/08/21 05:53:22;;;;;;;25.17;22.23;;;21.80;99.90;;;;;;5029349;28;20018;-77
2023/08/21 05:55:48;;;;;;;30.50;24.65;;;21.90;99.90;;;;;;5032191;28;20021;-77
2023/08/21 05:58:14;;;;;;;31.92;25.98;;;22.00;99.90;;;;;;5031816;28;20079;-77
2023/08/21 06:00:40;;;;;;;28.70;25.52;;;22.00;99.90;;;;;;5025813;28;20022;-77
2023/08/21 06:03:05;;;;;;;30.35;25.85;;;22.00;99.90;;;;;;5029758;28;20079;-78
2023/08/21 06:05:31;;;;;;;29.17;22.40;;;22.10;99.90;;;;;;5030411;28;20116;-77
2023/08/21 06:07:57;;;;;;;26.05;23.15;;;22.00;99.90;;;;;;5031437;28;20026;-77
2023/08/21 06:10:22;;;;;;;31.30;24.50;;;22.10;99.90;;;;;;5029012;28;20076;-77
2023/08/21 06:12:48;;;;;;;34.88;25.15;;;22.10;99.90;;;;;;5030331;28;20483;-77
2023/08/21 06:15:14;;;;;;;29.85;23.55;;;22.10;99.90;;;;;;5030304;28;20033;-77
2023/08/21 06:17:40;;;;;;;28.73;24.02;;;22.10;99.90;;;;;;5012694;28;20076;-77
2023/08/21 06:20:08;;;;;;;29.55;24.95;;;22.20;99.90;;;;;;5027958;28;20057;-78
2023/08/21 06:22:34;;;;;;;27.40;24.27;;;22.20;99.90;;;;;;5023872;28;20430;-77
2023/08/21 06:25:00;;;;;;;29.98;25.00;;;22.20;99.90;;;;;;5028727;28;20030;-77
2023/08/21 06:27:25;;;;;;;30.23;25.33;;;22.10;99.90;;;;;;5042004;28;20046;-77
2023/08/21 06:29:51;;;;;;;30.15;26.42;;;22.20;99.90;;;;;;5030059;28;20025;-77
2023/08/21 06:32:17;;;;;;;32.78;26.15;;;22.20;99.90;;;;;;5022165;28;20037;-77
2023/08/21 06:34:42;;;;;;;32.05;26.90;;;22.10;99.90;;;;;;5034192;28;20048;-77
2023/08/21 06:37:09;;;;;;;31.10;26.63;;;22.20;99.90;;;;;;5030836;28;20120;-76
2023/08/21 06:39:34;;;;;;;31.35;24.42;;;22.20;99.90;;;;;;5018865;28;20021;-77
2023/08/21 06:42:00;;;;;;;29.02;23.35;;;22.20;99.90;;;;;;5036088;28;20125;-77
2023/08/21 06:44:26;;;;;;;27.75;24.35;;;22.30;99.90;;;;;;5034073;28;20463;-77
2023/08/21 06:46:52;;;;;;;33.05;23.73;;;22.20;99.90;;;;;;5035194;28;20021;-77
2023/08/21 06:49:17;;;;;;;27.40;24.27;;;22.30;99.90;;;;;;5034556;28;20096;-77
2023/08/21 06:51:43;;;;;;;30.20;25.42;;;22.20;99.90;;;;;;5035105;28;20091;-77
2023/08/21 06:54:09;;;;;;;34.58;25.52;;;22.20;99.90;;;;;;5033815;28;20068;-77
2023/08/21 06:56:34;;;;;;;31.27;24.55;;;22.00;99.90;;;;;;5033739;28;20026;-77
2023/08/21 06:59:00;;;;;;;30.27;25.50;;;22.10;99.90;;;;;;5033634;28;20418;-77
2023/08/21 07:01:25;;;;;;;32.13;24.75;;;22.00;99.90;;;;;;5032487;28;20026;-76
2023/08/21 07:03:51;;;;;;;32.90;25.67;;;22.00;99.90;;;;;;5034306;28;20022;-77
2023/08/21 07:06:17;;;;;;;33.80;26.92;;;22.00;99.90;;;;;;5033873;28;20021;-77
2023/08/21 07:08:42;;;;;;;30.95;26.45;;;21.90;99.90;;;;;;5027299;28;20061;-77
2023/08/21 07:11:09;;;;;;;31.65;25.40;;;22.00;99.90;;;;;;5026824;28;20021;-77
2023/08/21 07:13:36;;;;;;;36.60;26.40;;;21.90;99.90;;;;;;5026548;28;20026;-77
2023/08/21 07:16:02;;;;;;;33.88;26.98;;;22.00;99.90;;;;;;5017692;28;20056;-77
2023/08/21 07:18:30;;;;;;;33.65;27.27;;;22.00;99.90;;;;;;5025692;28;20506;-77
2023/08/21 07:20:56;;;;;;;33.45;25.55;;;22.00;99.90;;;;;;5026668;28;20017;-77
2023/08/21 07:23:21;;;;;;;36.75;26.70;;;22.00;99.90;;;;;;5037862;28;20048;-76
2023/08/21 07:25:47;;;;;;;36.25;25.98;;;22.10;99.90;;;;;;5028059;28;20044;-77
2023/08/21 07:28:12;;;;;;;37.25;26.38;;;22.10;99.90;;;;;;5031563;28;20022;-77
2023/08/21 07:30:38;;;;;;;31.58;25.48;;;22.10;99.90;;;;;;5030345;28;20092;-76
2023/08/21 07:33:05;;;;;;;34.15;25.35;;;22.20;99.90;;;;;;5023331;28;20021;-76
2023/08/21 07:35:31;;;;;;;31.67;23.42;;;22.20;99.90;;;;;;5032850;28;20025;-77
2023/08/21 07:37:57;;;;;;;31.40;23.75;;;22.30;99.90;;;;;;5032782;28;20099;-77
2023/08/21 07:40:22;;;;;;;38.45;26.25;;;22.40;99.90;;;;;;5035037;28;20025;-77
2023/08/21 07:42:48;;;;;;;28.33;23.55;;;22.50;99.90;;;;;;5033053;28;20036;-77
2023/08/21 07:45:13;;;;;;;32.60;24.27;;;22.50;99.90;;;;;;5029606;28;20036;-76
2023/08/21 07:47:39;;;;;;;31.17;22.17;;;22.60;99.90;;;;;;5024110;28;20026;-76
2023/08/21 07:50:06;;;;;;;27.58;21.83;;;22.60;99.90;;;;;;5028992;28;20104;-77
2023/08/21 07:52:32;;;;;;;26.65;21.63;;;22.60;99.90;;;;;;5024246;28;20117;-77
2023/08/21 07:55:00;;;;;;;27.95;21.25;;;22.60;99.90;;;;;;5034607;28;20017;-77
2023/08/21 07:57:27;;;;;;;26.98;21.40;;;22.60;99.90;;;;;;5032050;28;20053;-77
2023/08/21 07:59:52;;;;;;;26.27;20.38;;;22.60;99.90;;;;;;5031817;28;20029;-79
2023/08/21 08:02:18;;;;;;;29.60;22.25;;;22.60;99.90;;;;;;5032180;28;20708;-79
2023/08/21 08:04:43;;;;;;;21.83;18.65;;;22.70;99.90;;;;;;5032086;28;20017;-77
2023/08/21 08:07:09;;;;;;;23.70;19.10;;;22.70;99.90;;;;;;5032215;28;20468;-79
2023/08/21 08:09:35;;;;;;;23.27;19.25;;;22.70;99.90;;;;;;5031749;28;20017;-78
2023/08/21 08:12:01;;;;;;;24.00;18.50;;;22.70;99.90;;;;;;5032634;28;20115;-77
2023/08/21 08:14:27;;;;;;;23.40;18.38;;;22.70;99.90;;;;;;5032641;28;20048;-79
2023/08/21 08:16:52;;;;;;;20.98;18.70;;;22.80;99.90;;;;;;5033521;28;20056;-79
2023/08/21 08:19:18;;;;;;;20.25;17.05;;;22.70;99.90;;;;;;5033887;28;20024;-77
2023/08/21 08:21:44;;;;;;;23.25;18.05;;;22.70;99.90;;;;;;5032306;28;20032;-77
2023/08/21 08:24:09;;;;;;;21.15;17.85;;;22.60;99.90;;;;;;5033462;28;20033;-76
2023/08/21 08:26:35;;;;;;;23.40;19.80;;;22.60;99.90;;;;;;5033847;28;20497;-79
2023/08/21 08:29:01;;;;;;;25.52;21.10;;;22.50;99.90;;;;;;5033445;28;20083;-79
2023/08/21 08:31:27;;;;;;;24.02;19.35;;;22.50;99.90;;;;;;5033616;28;20441;-77
2023/08/21 08:33:53;;;;;;;48.05;22.48;;;22.40;99.90;;;;;;5032159;28;20025;-77
2023/08/21 08:36:20;;;;;;;26.25;20.48;;;22.40;99.90;;;;;;5033510;28;20036;-77
2023/08/21 08:38:45;;;;;;;23.65;20.63;;;22.30;99.90;;;;;;5031953;28;20036;-78
2023/08/21 08:41:32;;;;;;;40.20;22.70;;;22.30;99.90;;;;;;5032363;28;20029;-80
2023/08/21 08:43:58;;;;;;;20.50;18.23;;;22.30;99.90;;;;;;5048033;28;20079;-78
2023/08/21 08:46:25;;;;;;;23.88;19.98;;;22.20;99.90;;;;;;5032245;28;20032;-77
2023/08/21 08:48:54;;;;;;;23.33;20.83;;;22.30;99.90;;;;;;5034972;28;20025;-77
2023/08/21 08:51:20;;;;;;;24.40;21.67;;;22.30;99.90;;;;;;5048468;28;20018;-78
2023/08/21 08:53:47;;;;;;;25.15;21.20;;;22.40;99.90;;;;;;5031822;28;20538;-77
2023/08/21 08:56:13;;;;;;;26.60;20.65;;;22.40;99.90;;;;;;5032750;28;20109;-77
2023/08/21 08:58:39;;;;;;;24.73;21.25;;;22.20;99.90;;;;;;5031530;28;20120;-79
2023/08/21 09:01:05;;;;;;;25.88;21.13;;;22.20;99.90;;;;;;5032988;28;20029;-77
2023/08/21 09:03:31;;;;;;;22.63;20.17;;;22.20;99.90;;;;;;5031876;28;20094;-80
2023/08/21 09:06:00;;;;;;;24.20;21.60;;;22.20;99.90;;;;;;5032968;28;20030;-77
2023/08/21 09:08:25;;;;;;;42.83;21.70;;;22.30;99.90;;;;;;5031349;28;20078;-79
2023/08/21 09:10:52;;;;;;;23.15;20.27;;;22.40;99.90;;;;;;5033244;28;20535;-77
2023/08/21 09:13:19;;;;;;;23.58;20.60;;;22.50;99.90;;;;;;5031428;28;20471;-77
2023/08/21 09:15:49;;;;;;;22.52;20.13;;;22.60;99.90;;;;;;5031726;28;20026;-80
2023/08/21 09:18:15;;;;;;;23.88;20.65;;;22.80;99.90;;;;;;5032323;28;20050;-80
2023/08/21 09:20:41;;;;;;;20.90;18.67;;;22.90;99.90;;;;;;5031613;28;20079;-77
2023/08/21 09:23:08;;;;;;;25.67;19.52;;;23.00;99.90;;;;;;5032577;28;20025;-79
2023/08/21 09:25:40;;;;;;;20.40;18.23;;;23.00;99.90;;;;;;5031279;28;20037;-78
2023/08/21 09:28:09;;;;;;;22.20;19.88;;;23.10;99.90;;;;;;5032733;28;20041;-80
2023/08/21 09:30:50;;;;;;;24.23;19.67;;;23.20;99.90;;;;;;5031266;28;20511;-80
2023/08/21 09:33:24;;;;;;;20.65;17.33;;;23.30;99.90;;;;;;5032772;28;20384;-80
2023/08/21 09:35:54;;;;;;;20.35;17.95;;;23.30;99.90;;;;;;5032518;28;20087;-79
2023/08/21 09:38:20;;;;;;;18.88;16.90;;;23.40;99.90;;;;;;5031198;28;20559;-80
2023/08/21 09:40:54;;;;;;;20.02;18.00;;;23.60;99.90;;;;;;5030947;28;20025;-80
2023/08/21 09:43:21;;;;;;;19.42;16.20;;;23.70;99.90;;;;;;5047196;28;20368;-78
2023/08/21 09:45:48;;;;;;;19.90;17.77;;;23.70;99.90;;;;;;5031354;28;20018;-79
2023/08/21 09:48:14;;;;;;;18.95;16.17;;;23.90;99.90;;;;;;5030914;28;20174;-78
2023/08/21 09:50:40;;;;;;;19.25;17.25;;;24.00;99.90;;;;;;5031389;28;20028;-78
2023/08/21 09:53:09;;;;;;;19.98;17.88;;;24.20;99.90;;;;;;5031829;28;20104;-78
2023/08/21 09:55:35;;;;;;;19.83;17.70;;;24.20;99.90;;;;;;5031344;28;20018;-78
2023/08/21 09:58:02;;;;;;;18.55;16.63;;;24.40;99.90;;;;;;5030659;28;20129;-78
2023/08/21 10:00:37;;;;;;;24.77;17.92;;;24.50;99.90;;;;;;5031203;28;20022;-81
2023/08/21 10:03:07;;;;;;;18.67;16.83;;;24.60;99.90;;;;;;5030956;28;20025;-79
2023/08/21 10:05:35;;;;;;;17.45;15.55;;;24.70;99.90;;;;;;5032370;28;20060;-79
2023/08/21 10:08:02;;;;;;;18.75;16.75;;;24.80;99.90;;;;;;5031790;28;20022;-81
2023/08/21 10:10:38;;;;;;;19.30;17.40;;;25.00;99.90;;;;;;5036238;28;20021;-79
2023/08/21 10:13:06;;;;;;;21.60;17.10;;;25.20;99.90;;;;;;5034776;28;20018;-79
2023/08/21 10:15:33;;;;;;;20.63;15.80;;;25.30;99.90;;;;;;5034836;28;20022;-79
2023/08/21 10:18:17;;;;;;;18.83;16.83;;;25.50;99.90;;;;;;5035769;28;20080;-79
2023/08/21 10:20:43;;;;;;;18.75;16.90;;;25.80;99.90;;;;;;5034771;28;20074;-80
2023/08/21 10:23:08;;;;;;;18.25;16.35;;;25.90;99.90;;;;;;5034593;28;20026;-81
2023/08/21 10:25:41;;;;;;;22.83;17.67;;;26.10;99.90;;;;;;5035846;28;20013;-81
2023/08/21 10:28:07;;;;;;;18.20;16.38;;;26.30;99.90;;;;;;5034652;28;20494;-81
2023/08/21 10:30:33;;;;;;;18.13;16.33;;;26.50;99.90;;;;;;5034417;28;20022;-81
2023/08/21 10:33:00;;;;;;;23.20;15.52;;;26.50;99.90;;;;;;5035869;28;20018;-82
2023/08/21 10:35:30;;;;;;;16.25;14.65;;;26.60;99.90;;;;;;5034391;28;20017;-80
2023/08/21 10:38:17;;;;;;;16.83;15.23;;;26.80;99.90;;;;;;5034562;28;20060;-80
2023/08/21 10:41:07;;;;;;;16.02;14.43;;;26.80;99.90;;;;;;5045150;28;20022;-81
2023/08/21 10:43:45;;;;;;;26.13;14.48;;;26.80;99.90;;;;;;5030588;28;20125;-79
2023/08/21 10:46:12;;;;;;;15.50;13.88;;;26.90;99.90;;;;;;5034357;28;20109;-80
2023/08/21 10:48:38;;;;;;;23.45;14.80;;;27.10;99.90;;;;;;5034137;28;20083;-82
2023/08/21 10:51:09;;;;;;;18.20;15.80;;;27.20;99.90;;;;;;5034298;28;20033;-82
2023/08/21 10:53:36;;;;;;;15.00;13.35;;;27.20;99.90;;;;;;5035190;28;20028;-79
2023/08/21 10:56:03;;;;;;;14.02;12.63;;;27.30;99.90;;;;;;5035535;28;20395;-77
2023/08/21 10:58:34;;;;;;;13.77;12.25;;;27.30;96.00;;;;;;5017225;28;20057;-78
2023/08/21 11:00:59;;;;;;;13.32;12.02;;;27.40;91.70;;;;;;5034139;28;20132;-80
2023/08/21 11:03:25;;;;;;;13.27;11.95;;;27.50;91.00;;;;;;5033237;28;20074;-80
2023/08/21 11:06:20;;;;;;;14.32;12.52;;;27.50;91.40;;;;;;5033981;28;20030;-78
2023/08/21 11:08:46;;;;;;;14.18;12.77;;;27.50;91.90;;;;;;5025701;28;20131;-78
2023/08/21 11:11:12;;;;;;;15.48;13.98;;;27.60;94.10;;;;;;5033693;28;20519;-78
2023/08/21 11:13:37;;;;;;;16.08;14.38;;;27.50;97.50;;;;;;5033855;28;20049;-79
2023/08/21 11:16:04;;;;;;;16.52;14.88;;;27.40;99.90;;;;;;5034869;28;20057;-80
2023/08/21 11:18:34;;;;;;;16.05;14.35;;;27.40;99.90;;;;;;5035052;28;20529;-80
2023/08/21 11:21:04;;;;;;;16.27;14.52;;;27.30;99.90;;;;;;5032388;28;20018;-80
2023/08/21 11:23:36;;;;;;;17.23;15.57;;;27.30;99.90;;;;;;5033921;28;20048;-78
2023/08/21 11:26:03;;;;;;;17.58;15.73;;;27.30;99.90;;;;;;5034728;28;20053;-77
2023/08/21 11:28:30;;;;;;;15.32;13.63;;;27.40;99.90;;;;;;5033541;28;20052;-78
2023/08/21 11:30:57;;;;;;;17.33;14.68;;;27.40;99.90;;;;;;5033516;28;20032;-77
2023/08/21 11:33:23;;;;;;;16.92;15.20;;;27.40;99.30;;;;;;5034765;28;20036;-81
2023/08/21 11:35:49;;;;;;;17.00;14.35;;;27.30;98.50;;;;;;5034336;28;20037;-78
2023/08/21 11:38:22;;;;;;;15.80;14.38;;;27.40;99.90;;;;;;5034797;28;20095;-80
2023/08/21 11:40:52;;;;;;;17.20;15.15;;;27.40;99.90;;;;;;5021046;28;20030;-78
2023/08/21 11:43:18;;;;;;;17.42;15.63;;;27.50;99.90;;;;;;5033129;28;20025;-80
2023/08/21 11:45:45;;;;;;;15.35;13.88;;;27.50;99.90;;;;;;5032961;28;20029;-80
2023/08/21 11:48:11;;;;;;;16.35;14.75;;;27.50;97.60;;;;;;5034267;28;20057;-81
2023/08/21 11:50:37;;;;;;;15.88;13.93;;;27.50;97.20;;;;;;5033255;28;20049;-78
2023/08/21 11:53:03;;;;;;;16.27;14.48;;;27.60;99.30;;;;;;5032986;28;20022;-80
2023/08/21 11:55:29;;;;;;;15.82;14.38;;;27.70;97.40;;;;;;5033178;28;20067;-80
2023/08/21 11:57:55;;;;;;;15.68;13.98;;;27.80;98.70;;;;;;5048963;28;20022;-78
2023/08/21 12:00:27;;;;;;;16.90;15.15;;;27.80;93.60;;;;;;5033094;28;20024;-79
2023/08/21 12:03:00;;;;;;;18.48;15.02;;;27.80;93.90;;;;;;5033986;28;20025;-81
2023/08/21 12:05:27;;;;;;;16.15;13.68;;;27.90;95.20;;;;;;5034204;28;20025;-79
2023/08/21 12:07:54;;;;;;;16.10;14.50;;;27.90;94.30;;;;;;5034037;28;20022;-79
2023/08/21 12:10:28;;;;;;;16.13;14.52;;;28.00;95.50;;;;;;5034326;28;20031;-81
2023/08/21 12:12:53;;;;;;;17.02;15.27;;;28.00;89.40;;;;;;5032679;28;20382;-79
2023/08/21 12:15:19;;;;;;;16.58;14.90;;;28.00;85.60;;;;;;5032721;28;20027;-80
2023/08/21 12:17:45;;;;;;;20.25;16.27;;;28.10;88.10;;;;;;5032356;28;20056;-81
2023/08/21 12:20:11;;;;;;;21.90;16.63;;;28.10;86.30;;;;;;5032795;28;20037;-80
2023/08/21 12:22:40;;;;;;;24.45;18.80;;;28.10;82.40;;;;;;5032345;28;20364;-81
2023/08/21 12:25:07;;;;;;;28.77;21.30;;;28.20;80.10;;;;;;5032388;28;20052;-82
2023/08/21 12:27:32;;;;;;;31.98;23.30;;;28.30;80.60;;;;;;5032405;28;20021;-82